Time;durP1;ratioP1;P1;durP2;ratioP2;P2;SDS_P1;SDS_P2;PMS_P1;PMS_P2;Temp;Humidity;BMP_temperature;BMP_pressure;BME280_temperature;BME280_humidity;BME280_pressure;Samples;Min_cycle;Max_cycle;Signal;HPM_P1;HPM_P2
2022/04/05 00:01:27;;;;;;;0.20;0.20;;;;;;;19.10;35.41;100090.25;5133165;27;20064;-35
2022/04/05 00:03:53;;;;;;;0.20;0.20;;;;;;;19.10;35.86;100089.44;5118336;27;20474;-31
2022/04/05 00:06:19;;;;;;;0.20;0.20;;;;;;;19.10;35.52;100084.75;5134762;27;20549;-31
2022/04/05 00:08:44;;;;;;;0.20;0.20;;;;;;;19.10;35.81;100084.75;5131558;27;20039;-32
2022/04/05 00:11:10;;;;;;;0.20;0.20;;;;;;;19.10;35.74;100086.69;5119607;27;20043;-32
2022/04/05 00:13:36;;;;;;;0.20;0.20;;;;;;;19.09;35.61;100085.88;5132908;27;20459;-31
2022/04/05 00:16:02;;;;;;;0.20;0.20;;;;;;;19.09;35.81;100083.13;5135476;27;20047;-31
2022/04/05 00:18:27;;;;;;;0.20;0.20;;;;;;;19.09;35.90;100091.41;5135981;27;20043;-30
2022/04/05 00:20:53;;;;;;;0.20;0.20;;;;;;;19.08;35.84;100092.50;5143579;27;20041;-31
2022/04/05 00:23:19;;;;;;;0.20;0.20;;;;;;;19.09;35.83;100096.91;5137609;27;20058;-31
2022/04/05 00:25:45;;;;;;;0.20;0.20;;;;;;;19.08;35.70;100092.50;5134791;27;20046;-30
2022/04/05 00:28:10;;;;;;;0.20;0.20;;;;;;;19.08;35.95;100095.25;5138153;27;20046;-30
2022/04/05 00:30:36;;;;;;;0.20;0.20;;;;;;;19.08;35.87;100095.25;5134589;27;20088;-31
2022/04/05 00:33:02;;;;;;;0.20;0.20;;;;;;;19.08;35.71;100091.66;5138099;27;20437;-30
2022/04/05 00:35:28;;;;;;;0.20;0.20;;;;;;;19.07;35.72;100092.81;5134551;27;20401;-31
2022/04/05 00:38:09;;;;;;;0.20;0.20;;;;;;;19.07;35.65;100090.84;5118262;27;20034;-30
2022/04/05 00:40:36;;;;;;;0.20;0.20;;;;;;;19.07;35.85;100084.53;5139018;27;20496;-33
2022/04/05 00:43:05;;;;;;;0.20;0.20;;;;;;;19.07;35.84;100090.03;5136933;27;20093;-31
2022/04/05 00:45:32;;;;;;;0.20;0.20;;;;;;;19.06;35.62;100080.94;5135572;27;20075;-31
2022/04/05 00:47:59;;;;;;;0.20;0.20;;;;;;;19.06;35.96;100086.47;5117140;27;20430;-32
2022/04/05 00:50:26;;;;;;;0.20;0.20;;;;;;;19.06;35.69;100091.97;5111695;28;20545;-31
2022/04/05 00:52:52;;;;;;;0.20;0.20;;;;;;;19.06;35.81;100086.47;5139434;27;20074;-31
2022/04/05 00:55:20;;;;;;;0.20;0.20;;;;;;;19.05;35.97;100091.16;5133220;27;20055;-32
2022/04/05 00:57:46;;;;;;;0.20;0.20;;;;;;;19.05;35.91;100088.41;5114308;27;20080;-30
2022/04/05 01:00:14;;;;;;;0.20;0.20;;;;;;;19.03;35.72;100085.13;5112387;27;20071;-30
2022/04/05 01:02:40;;;;;;;0.20;0.20;;;;;;;19.05;35.71;100091.16;5134758;27;20508;-30
2022/04/05 01:05:07;;;;;;;0.20;0.20;;;;;;;19.05;35.89;100087.59;5136111;27;20485;-32
2022/04/05 01:07:33;;;;;;;0.20;0.20;;;;;;;19.05;35.95;100095.88;5131997;27;20168;-33
2022/04/05 01:09:59;;;;;;;0.20;0.20;;;;;;;19.05;35.71;100091.16;5119873;27;20082;-31
2022/04/05 01:12:25;;;;;;;0.20;0.20;;;;;;;19.05;35.93;100090.34;5130754;27;20086;-30
2022/04/05 01:14:51;;;;;;;0.20;0.20;;;;;;;19.04;35.81;100092.28;5115581;27;20370;-34
2022/04/05 01:17:18;;;;;;;0.20;0.20;;;;;;;19.04;35.70;100092.28;5115586;27;20100;-30
2022/04/05 01:19:43;;;;;;;0.20;0.20;;;;;;;19.05;35.64;100093.13;5094502;28;20122;-32
2022/04/05 01:22:10;;;;;;;0.20;0.20;;;;;;;19.03;35.72;100104.44;5114710;27;20069;-31
2022/04/05 01:24:36;;;;;;;0.20;0.20;;;;;;;19.04;35.81;100102.47;5116752;28;20084;-31
2022/04/05 01:27:04;;;;;;;0.20;0.20;;;;;;;19.03;35.96;100101.66;5131278;27;20058;-30
2022/04/05 01:29:30;;;;;;;0.20;0.20;;;;;;;19.03;35.83;100104.44;5117544;28;20138;-31
2022/04/05 01:32:01;;;;;;;0.20;0.20;;;;;;;19.02;35.86;100101.97;5103150;27;20102;-31
2022/04/05 01:34:29;;;;;;;0.20;0.20;;;;;;;19.03;35.96;100112.72;5130190;27;20043;-31
2022/04/05 01:36:57;;;;;;;0.20;0.20;;;;;;;19.02;35.82;100108.31;5111646;27;20070;-31
2022/04/05 01:39:25;;;;;;;0.20;0.20;;;;;;;19.03;35.73;100122.94;5119093;27;20089;-31
2022/04/05 01:41:52;;;;;;;0.20;0.20;;;;;;;19.03;35.68;100112.72;5133839;27;20079;-31
2022/04/05 01:44:18;;;;;;;0.20;0.20;;;;;;;19.03;35.89;100104.44;5117424;27;20075;-30
2022/04/05 01:46:43;;;;;;;0.20;0.20;;;;;;;19.03;35.86;100114.66;5136148;27;20103;-30
2022/04/05 01:49:10;;;;;;;0.20;0.20;;;;;;;19.02;36.02;100105.56;5131763;27;20039;-31
2022/04/05 01:51:37;;;;;;;0.20;0.20;;;;;;;19.01;35.92;100095.66;5135272;27;20084;-31
2022/04/05 01:54:05;;;;;;;0.30;0.30;;;;;;;19.03;35.70;100103.63;5115485;27;20075;-32
2022/04/05 01:56:32;;;;;;;0.20;0.20;;;;;;;19.02;35.69;100091.75;5133273;27;20146;-31
2022/04/05 01:58:59;;;;;;;0.20;0.20;;;;;;;19.02;35.71;100101.97;5112741;27;20180;-31
2022/04/05 02:01:25;;;;;;;0.20;0.20;;;;;;;19.00;35.77;100096.78;5131512;27;20067;-30
2022/04/05 02:03:50;;;;;;;0.20;0.20;;;;;;;19.00;36.05;100091.25;5116310;27;20462;-30
2022/04/05 02:06:16;;;;;;;0.20;0.20;;;;;;;19.00;35.94;100096.78;5135563;27;20053;-31
2022/04/05 02:08:42;;;;;;;0.20;0.20;;;;;;;19.00;35.75;100093.19;5131825;27;20451;-30
2022/04/05 02:11:07;;;;;;;0.20;0.20;;;;;;;19.01;36.00;100089.31;5140176;27;20054;-30
2022/04/05 02:13:33;;;;;;;0.20;0.20;;;;;;;19.00;35.87;100087.69;5131135;27;20389;-30
2022/04/05 02:16:03;;;;;;;0.20;0.20;;;;;;;19.00;35.88;100088.50;5133423;27;20043;-32
2022/04/05 02:18:29;;;;;;;0.20;0.20;;;;;;;19.00;35.96;100087.69;5112772;28;20070;-30
2022/04/05 02:20:55;;;;;;;0.20;0.20;;;;;;;18.99;36.00;100086.84;5134942;27;20434;-33
2022/04/05 02:23:21;;;;;;;0.20;0.20;;;;;;;18.99;35.89;100083.25;5136007;27;20070;-30
2022/04/05 02:25:47;;;;;;;0.20;0.20;;;;;;;18.98;35.87;100090.72;5136683;27;20514;-33
2022/04/05 02:28:13;;;;;;;0.20;0.20;;;;;;;18.99;35.78;100092.34;5114783;28;20039;-30
2022/04/05 02:30:39;;;;;;;0.20;0.20;;;;;;;18.99;35.79;100081.31;5120204;27;20652;-31
2022/04/05 02:33:05;;;;;;;0.20;0.20;;;;;;;18.99;35.81;100091.53;5140121;27;20035;-30
2022/04/05 02:35:30;;;;;;;0.30;0.30;;;;;;;18.98;35.81;100089.91;5137603;27;20056;-31
2022/04/05 02:38:00;;;;;;;0.20;0.20;;;;;;;18.99;35.73;100095.09;5135842;27;20484;-31
2022/04/05 02:40:27;;;;;;;0.20;0.20;;;;;;;18.99;35.81;100095.09;5120118;27;20066;-31
2022/04/05 02:42:53;;;;;;;0.28;0.28;;;;;;;18.97;35.93;100094.59;5135901;27;20122;-31
2022/04/05 02:45:19;;;;;;;0.20;0.20;;;;;;;18.98;35.96;100096.25;5124059;27;20051;-30
2022/04/05 02:47:44;;;;;;;0.20;0.20;;;;;;;18.98;35.91;100096.25;5134332;27;20477;-30
2022/04/05 02:50:11;;;;;;;0.20;0.20;;;;;;;18.99;35.93;100094.28;5135058;27;20039;-30
2022/04/05 02:52:36;;;;;;;0.20;0.20;;;;;;;18.98;35.95;100090.72;5117880;27;20089;-31
2022/04/05 02:55:03;;;;;;;0.20;0.20;;;;;;;18.98;35.90;100093.47;5139352;27;20078;-31
2022/04/05 02:57:29;;;;;;;0.20;0.20;;;;;;;18.98;35.93;100090.72;5113044;27;20480;-31
2022/04/05 02:59:55;;;;;;;0.20;0.20;;;;;;;18.96;35.80;100087.44;5144096;27;20181;-31
2022/04/05 03:02:21;;;;;;;0.20;0.20;;;;;;;18.96;35.90;100092.97;5136305;27;20501;-32
2022/04/05 03:04:47;;;;;;;0.20;0.20;;;;;;;18.96;36.01;100083.88;5140149;27;20042;-30
2022/04/05 03:07:12;;;;;;;0.20;0.20;;;;;;;18.96;36.02;100084.69;5134595;27;20104;-33
2022/04/05 03:09:38;;;;;;;0.20;0.20;;;;;;;18.97;36.02;100091.84;5135454;27;20043;-31
2022/04/05 03:12:04;;;;;;;0.20;0.20;;;;;;;18.95;36.10;100094.06;5141720;27;20578;-31
2022/04/05 03:14:29;;;;;;;0.20;0.20;;;;;;;18.97;35.97;100097.38;5132246;27;20443;-32
2022/04/05 03:16:55;;;;;;;0.20;0.20;;;;;;;18.95;36.11;100090.50;5136040;27;20465;-31
2022/04/05 03:19:21;;;;;;;0.20;0.20;;;;;;;18.95;35.83;100096.81;5130567;27;20058;-31
2022/04/05 03:21:47;;;;;;;0.20;0.20;;;;;;;18.95;35.86;100099.59;5136964;27;20138;-31
2022/04/05 03:24:13;;;;;;;0.20;0.20;;;;;;;18.95;36.00;100098.78;5138166;27;20140;-31
2022/04/05 03:26:39;;;;;;;0.20;0.20;;;;;;;18.97;36.16;100096.53;5134814;27;20043;-31
2022/04/05 03:29:04;;;;;;;0.20;0.20;;;;;;;18.94;36.05;100097.94;5131585;27;20043;-30
2022/04/05 03:31:30;;;;;;;0.20;0.20;;;;;;;18.94;36.08;100094.38;5137637;27;20613;-31
2022/04/05 03:33:56;;;;;;;0.20;0.20;;;;;;;18.95;35.89;100096.00;5133491;27;20132;-32
2022/04/05 03:36:21;;;;;;;0.20;0.20;;;;;;;18.94;35.85;100095.19;5132772;27;20046;-31
2022/04/05 03:38:47;;;;;;;0.20;0.20;;;;;;;18.95;36.00;100098.78;5138945;27;20050;-31
2022/04/05 03:41:13;;;;;;;0.20;0.20;;;;;;;18.95;35.86;100098.78;5139800;27;20062;-30
2022/04/05 03:43:38;;;;;;;0.20;0.20;;;;;;;18.94;35.98;100097.13;5140848;27;20046;-30
2022/04/05 03:46:04;;;;;;;0.20;0.20;;;;;;;18.95;36.17;100096.00;5134939;27;20047;-31
2022/04/05 03:48:30;;;;;;;0.20;0.20;;;;;;;18.95;36.08;100101.53;5136243;27;20518;-32
2022/04/05 03:50:55;;;;;;;0.20;0.20;;;;;;;18.94;35.93;100095.19;5135075;27;20043;-30
2022/04/05 03:53:21;;;;;;;0.20;0.20;;;;;;;18.96;36.08;100097.66;5135898;27;20125;-34
2022/04/05 03:55:47;;;;;;;0.20;0.20;;;;;;;18.95;36.01;100098.78;5133804;27;20075;-32
2022/04/05 03:58:13;;;;;;;0.20;0.20;;;;;;;18.93;35.84;100096.31;5134818;27;20075;-31
2022/04/05 04:00:39;;;;;;;0.20;0.20;;;;;;;18.94;35.86;100108.16;5131102;27;20043;-30
2022/04/05 04:03:04;;;;;;;0.20;0.20;;;;;;;18.92;35.87;100102.97;5139238;27;20043;-31
2022/04/05 04:05:30;;;;;;;0.20;0.20;;;;;;;18.93;35.91;100107.34;5138890;27;20051;-30
2022/04/05 04:07:56;;;;;;;0.20;0.20;;;;;;;18.93;36.07;100110.13;5115552;28;20042;-31
2022/04/05 04:10:21;;;;;;;0.20;0.20;;;;;;;18.92;35.97;100111.25;5136958;27;20080;-31
2022/04/05 04:12:50;;;;;;;0.20;0.20;;;;;;;18.93;35.85;100110.13;5131688;27;20114;-32
2022/04/05 04:15:16;;;;;;;0.20;0.20;;;;;;;18.93;35.99;100103.78;5135000;27;20060;-30
2022/04/05 04:17:41;;;;;;;0.30;0.30;;;;;;;18.93;35.90;100110.13;5132338;27;20258;-31
2022/04/05 04:20:08;;;;;;;0.20;0.20;;;;;;;18.92;36.01;100105.72;5138525;27;20034;-31
2022/04/05 04:22:34;;;;;;;0.20;0.20;;;;;;;18.91;36.00;100101.34;5134197;27;20469;-30
2022/04/05 04:24:59;;;;;;;0.20;0.20;;;;;;;18.91;35.97;100098.56;5138883;27;20042;-33
2022/04/05 04:27:25;;;;;;;0.20;0.20;;;;;;;18.91;36.09;100106.84;5133746;27;20049;-31
2022/04/05 04:29:51;;;;;;;0.20;0.20;;;;;;;18.91;35.92;100106.00;5136436;27;20052;-31
2022/04/05 04:32:16;;;;;;;0.20;0.20;;;;;;;18.92;35.86;100108.47;5139146;27;20042;-32
2022/04/05 04:34:42;;;;;;;0.20;0.20;;;;;;;18.91;35.89;100106.84;5138909;27;20434;-31
2022/04/05 04:37:08;;;;;;;0.20;0.20;;;;;;;18.91;36.21;100106.00;5136008;27;20046;-30
2022/04/05 04:39:34;;;;;;;0.20;0.20;;;;;;;18.91;36.02;100106.00;5132433;27;20050;-31
2022/04/05 04:41:59;;;;;;;0.20;0.20;;;;;;;18.91;36.03;100106.84;5136584;27;20494;-31
2022/04/05 04:44:26;;;;;;;0.20;0.20;;;;;;;18.90;36.09;100105.19;5114316;27;20047;-31
2022/04/05 04:46:51;;;;;;;0.20;0.20;;;;;;;18.90;35.98;100105.19;5128095;27;20090;-31
2022/04/05 04:49:17;;;;;;;0.20;0.20;;;;;;;18.91;36.08;100114.28;5134409;27;20043;-30
2022/04/05 04:51:43;;;;;;;0.20;0.20;;;;;;;18.90;35.92;100116.22;5131872;27;20046;-31
2022/04/05 04:54:09;;;;;;;0.20;0.20;;;;;;;18.89;36.16;100116.53;5135395;27;20134;-32
2022/04/05 04:56:34;;;;;;;0.20;0.20;;;;;;;18.90;35.98;100107.94;5136458;27;20046;-30
2022/04/05 04:59:00;;;;;;;0.20;0.20;;;;;;;18.90;36.12;100109.88;5120576;27;20484;-31
2022/04/05 05:01:26;;;;;;;0.20;0.20;;;;;;;18.90;36.18;100109.88;5138116;27;20039;-32
2022/04/05 05:03:51;;;;;;;0.20;0.20;;;;;;;18.91;35.97;100114.28;5135856;27;20035;-31
2022/04/05 05:06:17;;;;;;;0.20;0.20;;;;;;;18.90;35.90;100116.22;5138889;27;20047;-30
2022/04/05 05:08:43;;;;;;;0.20;0.20;;;;;;;18.91;36.06;100119.78;5133184;27;20590;-29
2022/04/05 05:11:10;;;;;;;0.20;0.20;;;;;;;18.90;36.12;100120.91;5113442;27;20107;-31
2022/04/05 05:13:36;;;;;;;0.20;0.20;;;;;;;18.88;36.13;100115.72;5110384;27;20082;-30
2022/04/05 05:16:02;;;;;;;0.20;0.20;;;;;;;18.90;36.15;100120.91;5130588;27;20122;-31
2022/04/05 05:18:28;;;;;;;0.20;0.20;;;;;;;18.89;35.89;100125.63;5130734;27;20105;-30
2022/04/05 05:20:54;;;;;;;0.20;0.20;;;;;;;18.89;35.98;100117.34;5128074;27;20481;-32
2022/04/05 05:23:20;;;;;;;0.20;0.20;;;;;;;18.89;35.98;100125.63;5120823;27;20485;-33
2022/04/05 05:25:47;;;;;;;0.20;0.20;;;;;;;18.90;36.14;100130.00;5112844;27;20133;-32
2022/04/05 05:28:14;;;;;;;0.20;0.20;;;;;;;18.88;35.98;100123.16;5133231;27;20135;-32
2022/04/05 05:30:40;;;;;;;0.20;0.20;;;;;;;18.89;35.94;100128.38;5115632;27;20079;-32
2022/04/05 05:33:05;;;;;;;0.20;0.20;;;;;;;18.89;36.16;100131.13;5113917;27;20050;-30
2022/04/05 05:35:31;;;;;;;0.20;0.20;;;;;;;18.89;35.99;100127.56;5135979;27;20050;-31
2022/04/05 05:37:57;;;;;;;0.20;0.20;;;;;;;18.88;36.19;100124.00;5134565;27;20074;-31
2022/04/05 05:40:23;;;;;;;0.20;0.20;;;;;;;18.89;36.08;100130.31;5114375;27;20051;-32
2022/04/05 05:42:58;;;;;;;0.20;0.20;;;;;;;18.89;36.16;100131.13;5131065;27;20035;-33
2022/04/05 05:45:24;;;;;;;0.20;0.20;;;;;;;18.88;36.28;100131.44;5104901;27;20086;-32
2022/04/05 05:47:50;;;;;;;0.20;0.20;;;;;;;18.89;36.19;100127.56;5108116;27;20039;-32
2022/04/05 05:50:17;;;;;;;0.20;0.20;;;;;;;18.88;36.00;100129.50;5126084;27;20046;-31
2022/04/05 05:52:44;;;;;;;0.20;0.20;;;;;;;18.88;35.99;100136.97;5107721;27;20074;-32
2022/04/05 05:55:10;;;;;;;0.20;0.20;;;;;;;18.88;36.27;100137.78;5090942;27;20078;-32
2022/04/05 05:57:36;;;;;;;0.20;0.20;;;;;;;18.89;35.99;100146.88;5111246;27;20546;-30
2022/04/05 06:00:07;;;;;;;0.20;0.20;;;;;;;18.89;36.02;100144.13;5124297;27;20107;-31
2022/04/05 06:02:36;;;;;;;0.20;0.20;;;;;;;18.88;36.22;100146.06;5105696;27;20134;-31
2022/04/05 06:05:01;;;;;;;0.20;0.20;;;;;;;18.90;36.14;100146.56;5129273;27;20176;-33
2022/04/05 06:07:27;;;;;;;0.20;0.20;;;;;;;18.89;36.29;100152.41;5129704;27;20047;-31
2022/04/05 06:09:53;;;;;;;0.20;0.20;;;;;;;18.89;36.14;100155.16;5128950;27;20053;-31
2022/04/05 06:12:19;;;;;;;0.20;0.20;;;;;;;18.89;36.23;100152.41;5115157;27;20062;-31
2022/04/05 06:14:44;;;;;;;0.20;0.20;;;;;;;18.88;36.08;100151.56;5135492;27;20043;-32
2022/04/05 06:17:10;;;;;;;0.20;0.20;;;;;;;18.89;36.12;100155.16;5129685;27;20051;-31
2022/04/05 06:19:37;;;;;;;0.20;0.20;;;;;;;18.89;36.08;100149.63;5129211;27;20134;-31
2022/04/05 06:22:03;;;;;;;0.20;0.20;;;;;;;18.90;39.18;100157.59;5132778;27;20088;-33
2022/04/05 06:24:29;;;;;;;0.20;0.20;;;;;;;18.95;38.75;100163.03;5111264;27;20096;-35
2022/04/05 06:26:54;;;;;;;0.20;0.20;;;;;;;18.99;39.36;100164.09;5125766;27;20397;-32
2022/04/05 06:29:20;;;;;;;0.20;0.20;;;;;;;19.01;37.74;100163.81;5129269;27;20043;-35
2022/04/05 06:31:46;;;;;;;0.20;0.20;;;;;;;18.99;37.51;100161.34;5119436;27;20482;-33
2022/04/05 06:34:12;;;;;;;0.20;0.20;;;;;;;18.98;37.38;100172.69;5126700;27;20053;-33
2022/04/05 06:36:37;;;;;;;0.20;0.20;;;;;;;18.98;37.34;100165.22;5130236;27;20035;-33
2022/04/05 06:39:03;;;;;;;0.20;0.20;;;;;;;18.98;37.63;100170.72;5127437;27;21596;-31
2022/04/05 06:41:29;;;;;;;0.20;0.20;;;;;;;18.99;37.35;100174.31;5126527;27;20043;-33
2022/04/05 06:43:54;;;;;;;0.20;0.20;;;;;;;18.95;38.21;100168.56;5129640;27;20051;-34
2022/04/05 06:46:22;;;;;;;0.22;0.22;;;;;;;19.01;37.63;100174.84;5129555;27;20484;-34
2022/04/05 06:48:48;;;;;;;0.20;0.20;;;;;;;19.03;37.51;100176.19;5129686;27;20050;-37
2022/04/05 06:51:13;;;;;;;0.20;0.20;;;;;;;19.02;37.75;100176.47;5126153;27;20301;-31
2022/04/05 06:53:41;;;;;;;0.20;0.20;;;;;;;19.02;37.34;100182.00;5127734;27;20096;-34
2022/04/05 06:56:09;;;;;;;0.20;0.20;;;;;;;19.03;37.41;100181.69;5124724;27;20761;-35
2022/04/05 06:58:34;;;;;;;0.20;0.20;;;;;;;19.02;37.34;100177.31;5114123;27;20075;-35
2022/04/05 07:01:00;;;;;;;0.20;0.20;;;;;;;19.04;37.38;100186.13;5122048;27;20035;-33
2022/04/05 07:03:26;;;;;;;0.20;0.20;;;;;;;19.05;37.48;100184.19;5121289;27;20462;-35
2022/04/05 07:05:52;;;;;;;0.20;0.20;;;;;;;19.06;37.50;100183.06;5123250;27;20048;-35
2022/04/05 07:08:18;;;;;;;0.20;0.20;;;;;;;19.07;37.47;100189.38;5113691;27;20058;-32
2022/04/05 07:10:43;;;;;;;0.20;0.20;;;;;;;19.07;37.20;100192.16;5122034;27;20414;-33
2022/04/05 07:13:09;;;;;;;0.20;0.20;;;;;;;19.08;37.26;100194.59;5122155;27;20094;-35
2022/04/05 07:15:35;;;;;;;0.20;0.20;;;;;;;19.09;37.33;100188.00;5103145;28;20039;-35
2022/04/05 07:18:00;;;;;;;0.20;0.20;;;;;;;19.10;37.28;100194.31;5124094;27;20411;-35
2022/04/05 07:20:30;;;;;;;0.30;0.30;;;;;;;19.12;37.03;100192.06;5118094;27;20115;-35
2022/04/05 07:22:56;;;;;;;0.22;0.22;;;;;;;19.13;37.28;100193.69;5123037;27;20466;-33
2022/04/05 07:25:21;;;;;;;0.20;0.20;;;;;;;19.13;37.23;100186.28;5103474;27;20100;-32
2022/04/05 07:27:48;;;;;;;0.20;0.20;;;;;;;19.14;36.81;100181.56;5121980;27;20049;-33
2022/04/05 07:30:14;;;;;;;0.20;0.20;;;;;;;19.15;37.27;100191.47;5124430;27;20130;-34
2022/04/05 07:32:42;;;;;;;0.20;0.20;;;;;;;19.16;37.51;100184.84;5122554;27;20079;-32
2022/04/05 07:35:08;;;;;;;0.20;0.20;;;;;;;19.17;37.38;100183.72;5118196;27;20439;-36
2022/04/05 07:37:33;;;;;;;0.20;0.20;;;;;;;19.17;37.45;100189.22;5118454;27;21124;-31
2022/04/05 07:39:59;;;;;;;0.20;0.20;;;;;;;19.18;37.36;100188.13;5121355;27;20047;-35
2022/04/05 07:42:26;;;;;;;0.20;0.20;;;;;;;19.18;37.45;100179.84;5099420;27;20379;-33
2022/04/05 07:44:52;;;;;;;0.20;0.20;;;;;;;19.19;37.31;100182.31;5125009;27;20141;-32
2022/04/05 07:47:21;;;;;;;0.20;0.20;;;;;;;19.14;39.97;100185.16;5104118;27;20521;-32
2022/04/05 07:49:47;;;;;;;0.20;0.20;;;;;;;19.22;38.54;100187.25;5120951;27;20035;-35
2022/04/05 07:52:14;;;;;;;0.20;0.20;;;;;;;19.28;38.46;100193.50;5117457;27;20058;-34
2022/04/05 07:54:41;;;;;;;0.20;0.20;;;;;;;19.27;38.21;100183.56;5119473;27;20066;-33
2022/04/05 07:57:08;;;;;;;0.20;0.20;;;;;;;19.27;38.20;100191.84;5124158;27;20181;-33
2022/04/05 07:59:34;;;;;;;0.20;0.20;;;;;;;19.28;37.89;100190.72;5123074;27;20573;-32
2022/04/05 08:02:00;;;;;;;0.20;0.20;;;;;;;19.28;37.86;100196.25;5124909;27;20858;-35
2022/04/05 08:04:45;;;;;;;0.20;0.20;;;;;;;19.29;37.84;100207.00;5101707;27;20047;-34
2022/04/05 08:07:11;;;;;;;0.20;0.20;;;;;;;19.29;37.83;100195.94;5119993;27;20380;-36
2022/04/05 08:09:37;;;;;;;0.20;0.20;;;;;;;19.31;37.63;100195.66;5119344;27;20035;-33
2022/04/05 08:12:03;;;;;;;0.20;0.20;;;;;;;19.32;37.48;100196.47;5121220;27;20322;-33
2022/04/05 08:14:31;;;;;;;0.20;0.20;;;;;;;19.33;37.89;100201.69;5118995;27;20047;-33
2022/04/05 08:16:57;;;;;;;0.20;0.20;;;;;;;19.33;37.75;100200.88;5119389;27;20070;-36
2022/04/05 08:19:24;;;;;;;0.20;0.20;;;;;;;19.34;37.47;100197.00;5106059;27;20100;-35
2022/04/05 08:21:50;;;;;;;0.20;0.20;;;;;;;19.34;37.44;100200.56;5104571;27;20431;-33
2022/04/05 08:24:18;;;;;;;0.20;0.20;;;;;;;19.36;37.53;100203.03;5124909;27;20070;-33
2022/04/05 08:26:43;;;;;;;0.20;0.20;;;;;;;19.35;37.23;100205.00;5111019;27;20066;-35
2022/04/05 08:29:09;;;;;;;0.20;0.20;;;;;;;19.37;37.37;100205.50;5122116;27;20039;-36
2022/04/05 08:31:35;;;;;;;0.20;0.20;;;;;;;19.36;37.96;100209.38;5111016;27;20058;-36
2022/04/05 08:34:01;;;;;;;0.20;0.20;;;;;;;19.42;37.64;100210.13;5128479;27;20039;-36
2022/04/05 08:36:27;;;;;;;0.20;0.20;;;;;;;19.41;37.91;100209.31;5127846;27;20051;-36
2022/04/05 08:38:53;;;;;;;0.20;0.20;;;;;;;19.43;37.35;100209.00;5117456;27;20138;-33
2022/04/05 08:41:20;;;;;;;0.20;0.20;;;;;;;19.43;37.51;100212.59;5103187;27;20092;-34
2022/04/05 08:43:47;;;;;;;0.20;0.20;;;;;;;19.44;37.45;100211.47;5083007;27;20491;-33
2022/04/05 08:46:13;;;;;;;0.20;0.20;;;;;;;19.44;37.38;100208.72;5096150;27;22299;-32
2022/04/05 08:48:39;;;;;;;0.20;0.20;;;;;;;19.44;37.33;100214.22;5103229;27;20043;-33
2022/04/05 08:51:05;;;;;;;0.20;0.20;;;;;;;19.46;37.23;100216.69;5099765;27;20255;-34
2022/04/05 08:53:32;;;;;;;0.20;0.20;;;;;;;19.46;37.30;100209.22;5129057;27;20480;-34
2022/04/05 08:55:58;;;;;;;0.20;0.20;;;;;;;19.46;37.24;100214.75;5110181;27;20179;-33
2022/04/05 08:58:24;;;;;;;0.20;0.20;;;;;;;19.47;37.21;100216.41;5121148;27;20130;-36
2022/04/05 09:00:52;;;;;;;0.20;0.20;;;;;;;19.48;37.39;100225.50;5124336;27;20159;-35
2022/04/05 09:03:17;;;;;;;0.20;0.20;;;;;;;19.48;37.27;100220.81;5106257;28;20186;-33
2022/04/05 09:05:44;;;;;;;0.20;0.20;;;;;;;19.49;37.08;100224.38;5122469;27;20513;-33
2022/04/05 09:08:18;;;;;;;0.20;0.20;;;;;;;19.50;37.31;100226.00;5122207;27;20066;-34
2022/04/05 09:10:47;;;;;;;0.20;0.20;;;;;;;19.51;37.26;100233.16;5107490;27;20485;-34
2022/04/05 09:13:17;;;;;;;0.20;0.20;;;;;;;19.55;37.85;100228.69;5106946;27;20134;-33
2022/04/05 09:15:44;;;;;;;0.20;0.20;;;;;;;19.59;37.50;100234.44;5107951;27;20345;-33
2022/04/05 09:18:10;;;;;;;0.10;0.10;;;;;;;19.58;37.71;100232.81;5124350;27;20131;-35
2022/04/05 09:20:45;;;;;;;0.20;0.20;;;;;;;19.58;37.33;100238.31;5119797;27;20098;-34
2022/04/05 09:23:28;;;;;;;0.20;0.20;;;;;;;19.57;37.51;100236.69;5102884;27;20126;-33
2022/04/05 09:25:55;;;;;;;0.20;0.20;;;;;;;19.58;37.65;100232.81;5118454;27;20158;-37
2022/04/05 09:28:38;;;;;;;0.20;0.20;;;;;;;19.59;37.42;100239.97;5104955;27;20133;-33
2022/04/05 09:31:07;;;;;;;0.20;0.20;;;;;;;19.59;37.42;100237.19;5103416;27;20039;-34
2022/04/05 09:33:35;;;;;;;0.20;0.20;;;;;;;19.60;37.31;100236.06;5109887;27;20043;-35
2022/04/05 09:36:11;;;;;;;0.20;0.20;;;;;;;19.60;37.28;100236.06;5120135;27;20300;-33
2022/04/05 09:38:38;;;;;;;0.20;0.20;;;;;;;19.61;37.35;100240.53;5103539;27;20491;-41
2022/04/05 09:41:21;;;;;;;0.20;0.20;;;;;;;19.62;38.75;100234.69;5096522;27;20227;-34
2022/04/05 09:43:52;;;;;;;0.20;0.20;;;;;;;19.66;38.32;100229.41;5118015;27;21037;-36
2022/04/05 09:46:19;;;;;;;0.20;0.20;;;;;;;19.65;38.03;100233.28;5081877;28;20141;-34
2022/04/05 09:48:46;;;;;;;0.20;0.20;;;;;;;19.64;37.83;100232.44;5114311;27;20051;-34
2022/04/05 09:51:14;;;;;;;0.20;0.20;;;;;;;19.65;37.77;100222.25;5099530;27;20126;-35
2022/04/05 09:53:46;;;;;;;0.20;0.20;;;;;;;19.65;37.76;100236.88;5126344;27;20477;-35
2022/04/05 09:56:19;;;;;;;0.20;0.20;;;;;;;19.67;37.57;100228.28;5104071;27;20142;-35
2022/04/05 09:58:48;;;;;;;0.20;0.20;;;;;;;19.67;37.92;100242.91;5122083;27;20157;-33
2022/04/05 10:01:15;;;;;;;0.20;0.20;;;;;;;19.66;37.61;100230.22;5101932;27;20569;-37
2022/04/05 10:03:42;;;;;;;0.20;0.20;;;;;;;19.68;37.60;100230.72;5103848;27;21354;-36
2022/04/05 10:06:08;;;;;;;0.20;0.20;;;;;;;19.69;37.68;100237.91;5128610;27;20049;-33
2022/04/05 10:08:36;;;;;;;0.20;0.20;;;;;;;19.69;37.55;100237.06;5106187;27;20137;-32
2022/04/05 10:11:02;;;;;;;0.20;0.20;;;;;;;19.69;37.60;100229.63;5105261;27;20516;-33
2022/04/05 10:13:29;;;;;;;0.20;0.20;;;;;;;19.68;37.50;100236.25;5103734;27;20104;-34
2022/04/05 10:15:55;;;;;;;0.20;0.20;;;;;;;19.69;37.37;100235.16;5087275;28;20047;-36
2022/04/05 10:18:23;;;;;;;0.20;0.20;;;;;;;19.70;37.50;100242.31;5101751;27;20074;-34
2022/04/05 10:20:50;;;;;;;0.20;0.20;;;;;;;19.71;37.31;100243.94;5106735;27;20079;-35
2022/04/05 10:23:21;;;;;;;0.20;0.20;;;;;;;19.71;37.63;100240.34;5078880;27;20434;-36
2022/04/05 10:25:50;;;;;;;0.20;0.20;;;;;;;19.72;37.62;100244.75;5101893;27;20058;-35
2022/04/05 10:28:17;;;;;;;0.20;0.20;;;;;;;19.72;37.44;100242.00;5128936;27;20358;-35
2022/04/05 10:30:44;;;;;;;0.20;0.20;;;;;;;19.65;38.79;100245.16;5105977;27;20138;-36
2022/04/05 10:33:21;;;;;;;0.20;0.20;;;;;;;19.75;38.48;100250.50;5102464;27;20241;-35
2022/04/05 10:35:52;;;;;;;0.20;0.20;;;;;;;19.79;38.12;100245.19;5124633;27;20043;-31
2022/04/05 10:38:18;;;;;;;0.20;0.20;;;;;;;19.77;38.20;100252.94;5126614;27;20086;-35
2022/04/05 10:41:12;;;;;;;0.20;0.20;;;;;;;19.78;37.89;100255.44;5120874;27;20505;-32
2022/04/05 10:43:39;;;;;;;0.20;0.20;;;;;;;19.77;37.91;100253.81;5077981;27;20122;-33
2022/04/05 10:46:05;;;;;;;0.20;0.20;;;;;;;19.78;38.02;100249.09;5089919;27;20086;-32
2022/04/05 10:48:31;;;;;;;0.20;0.20;;;;;;;19.77;38.00;100255.72;5119111;27;20142;-33
2022/04/05 10:53:41;;;;;;;0.20;0.20;;;;;;;19.81;37.66;100254.00;5148978;27;20209;-34
2022/04/05 10:59:06;;;;;;;0.20;0.20;;;;;;;19.82;37.43;100244.59;5158303;27;20190;-34
2022/04/05 11:01:43;;;;;;;0.20;0.20;;;;;;;19.80;37.68;100239.38;5119103;27;20485;-34
2022/04/05 11:07:05;;;;;;;0.20;0.20;;;;;;;19.81;37.86;100245.72;5153496;27;20125;-33
2022/04/05 11:09:33;;;;;;;0.20;0.20;;;;;;;19.82;37.65;100252.91;5150882;27;20085;-34
2022/04/05 11:12:02;;;;;;;0.20;0.20;;;;;;;19.82;37.74;100243.75;5131707;27;20176;-37
2022/04/05 11:17:15;;;;;;;0.20;0.20;;;;;;;19.82;37.78;100244.59;5145464;27;20125;-33
2022/04/05 11:19:43;;;;;;;0.20;0.20;;;;;;;19.76;41.84;100240.28;5126155;27;20137;-34
2022/04/05 11:22:25;;;;;;;;;;;;;;;19.89;39.89;100249.72;5131540;27;20306;-33
2022/04/05 11:27:31;;;;;;;0.20;0.20;;;;;;;19.91;38.90;100250.28;5162858;27;20252;-33
2022/04/05 11:33:33;;;;;;;0.20;0.20;;;;;;;19.92;39.08;100241.66;5142702;27;20516;-34
2022/04/05 11:36:09;;;;;;;0.20;0.20;;;;;;;19.92;38.89;100240.84;5143470;27;20532;-34
2022/04/05 11:38:41;;;;;;;0.20;0.20;;;;;;;19.93;38.63;100236.94;5136072;27;20157;-37
2022/04/05 11:41:18;;;;;;;0.20;0.20;;;;;;;19.93;38.50;100235.00;5129243;27;20550;-33